Pikeville, TN (37367)

4:13 PM CDT on August 31, 2015 (GMT -0500)
Bledsoe Co 911 CNT | | Change Station
CLOSE
Current Station
Personal Weather Station
Location: Pikeville, TN
Elevation: 879 ft
Nearby Weather Stations

Elev 879 ft 35.61 °N, 85.19 °W | Updated 10 minutes ago

Partly Cloudy
Partly Cloudy
89.4 °F
Feels Like 92 °F
N
4.2
Wind Variable Wind from SSE

Today
High -- | Low -- °F
--% Chance of Precip.
Yesterday
High -- | Low -- °F
Precip. -- in
6:11 AM 7:09 PM
Waning Gibbous, 93% visible
Pressure 30.09 in
Visibility 10.0 miles
Clouds Clear
Heat Index 92 °F
Dew Point 66 °F
Humidity 47%
Rainfall 0.00 in
Snow Depth Not available.
UV 5 out of 12
Pollen 8.50 out of 12
Air Quality Not available.
Flu Activity Not available.
METAR KCSV 312053Z AUTO 00000KT 10SM CLR 27/18 A3014 RMK AO2 SLP188 T02670178 58015
Pressure 30.09 in
Visibility 10.0 miles
Clouds Clear
Heat Index 92 °F
Dew Point 66 °F
Humidity 47%
Rainfall 0.00 in
Snow Depth Not available.
UV 5 out of 12
Pollen 8.50 out of 12
Air Quality Not available.
Flu Activity Not available.
METAR KCSV 312053Z AUTO 00000KT 10SM CLR 27/18 A3014 RMK AO2 SLP188 T02670178 58015

10-Day Weather Forecast

×

Almanac

Astronomy

Aug. 31, 2015 Rise Set
Actual Time
Civil Twilight
Nautical Twilight
Astronomical Twilight
Moon
Length of Visible Light
Length of Day
Tomorrow will be .
, % of the Moon is Illuminated

Today's Extremes

State Highs State Lows

Community

WunderPhotos

Upload Photos

1,851,371 photos uploaded!

WunderBlogs® & News

Nearby

Air Quality

  Air Quality AQ Index Pollutant
Not available.

Snow Depth

Station Depth Elevation

Earthquake Activity

City Distance Mag. Time & Date
Minimum magnitude displayed is 2.5.

Coastal Water Temperatures

Place Temperature

Stations

Nearby Weather Stations

Station Location Temp. Windchill Dew Point Humidity Wind Precip. Elev Updated Type